sensor_id;sensor_type;location;lat;lon;timestamp;temperature;humidity
17370;DHT22;8802;52.402;4.920;2022-08-04T00:00:23;25.30;83.20
17370;DHT22;8802;52.402;4.920;2022-08-04T00:03:04;25.30;83.30
17370;DHT22;8802;52.402;4.920;2022-08-04T00:05:45;25.20;83.20
17370;DHT22;8802;52.402;4.920;2022-08-04T00:08:20;25.20;83.00
17370;DHT22;8802;52.402;4.920;2022-08-04T00:10:52;25.20;83.20
17370;DHT22;8802;52.402;4.920;2022-08-04T00:13:22;25.20;83.30
17370;DHT22;8802;52.402;4.920;2022-08-04T00:15:51;25.20;83.40
17370;DHT22;8802;52.402;4.920;2022-08-04T00:18:20;25.20;83.20
17370;DHT22;8802;52.402;4.920;2022-08-04T00:20:50;25.20;83.50
17370;DHT22;8802;52.402;4.920;2022-08-04T00:23:21;25.20;83.40
17370;DHT22;8802;52.402;4.920;2022-08-04T00:25:51;25.10;83.40
17370;DHT22;8802;52.402;4.920;2022-08-04T00:28:19;25.10;83.60
17370;DHT22;8802;52.402;4.920;2022-08-04T00:30:46;25.10;83.80
17370;DHT22;8802;52.402;4.920;2022-08-04T00:33:17;25.10;83.80
17370;DHT22;8802;52.402;4.920;2022-08-04T00:35:45;25.10;83.80
17370;DHT22;8802;52.402;4.920;2022-08-04T00:38:14;25.10;84.10
17370;DHT22;8802;52.402;4.920;2022-08-04T00:40:47;25.10;84.20
17370;DHT22;8802;52.402;4.920;2022-08-04T00:43:22;25.10;84.40
17370;DHT22;8802;52.402;4.920;2022-08-04T00:46:04;25.10;84.40
17370;DHT22;8802;52.402;4.920;2022-08-04T00:51:34;25.10;84.60
17370;DHT22;8802;52.402;4.920;2022-08-04T00:54:10;25.00;84.60
17370;DHT22;8802;52.402;4.920;2022-08-04T00:59:44;25.00;84.60
17370;DHT22;8802;52.402;4.920;2022-08-04T01:02:25;25.00;84.80
17370;DHT22;8802;52.402;4.920;2022-08-04T01:05:02;25.00;84.70
17370;DHT22;8802;52.402;4.920;2022-08-04T01:07:42;25.00;84.70
17370;DHT22;8802;52.402;4.920;2022-08-04T01:10:18;25.00;84.80
17370;DHT22;8802;52.402;4.920;2022-08-04T01:13:05;25.00;85.10
17370;DHT22;8802;52.402;4.920;2022-08-04T01:15:51;25.00;85.10
17370;DHT22;8802;52.402;4.920;2022-08-04T01:18:21;25.00;86.00
17370;DHT22;8802;52.402;4.920;2022-08-04T01:21:04;25.00;85.00
17370;DHT22;8802;52.402;4.920;2022-08-04T01:23:58;24.90;85.20
17370;DHT22;8802;52.402;4.920;2022-08-04T01:26:42;25.00;85.30
17370;DHT22;8802;52.402;4.920;2022-08-04T01:29:15;24.90;85.20
17370;DHT22;8802;52.402;4.920;2022-08-04T01:31:58;24.90;85.20
17370;DHT22;8802;52.402;4.920;2022-08-04T01:34:28;24.90;85.30
17370;DHT22;8802;52.402;4.920;2022-08-04T01:37:10;24.90;85.20
17370;DHT22;8802;52.402;4.920;2022-08-04T01:39:43;24.90;85.20
17370;DHT22;8802;52.402;4.920;2022-08-04T01:42:17;24.90;86.10
17370;DHT22;8802;52.402;4.920;2022-08-04T01:44:47;24.90;85.30
17370;DHT22;8802;52.402;4.920;2022-08-04T01:47:19;24.90;86.30
17370;DHT22;8802;52.402;4.920;2022-08-04T01:49:49;24.90;85.50
17370;DHT22;8802;52.402;4.920;2022-08-04T01:52:17;24.90;85.60
17370;DHT22;8802;52.402;4.920;2022-08-04T01:54:45;24.90;85.70
17370;DHT22;8802;52.402;4.920;2022-08-04T01:57:14;24.90;85.70
17370;DHT22;8802;52.402;4.920;2022-08-04T01:59:45;24.90;85.80
17370;DHT22;8802;52.402;4.920;2022-08-04T02:02:13;24.90;86.70
17370;DHT22;8802;52.402;4.920;2022-08-04T02:04:41;24.90;85.90
17370;DHT22;8802;52.402;4.920;2022-08-04T02:07:19;24.90;85.80
17370;DHT22;8802;52.402;4.920;2022-08-04T02:09:55;24.90;85.80
17370;DHT22;8802;52.402;4.920;2022-08-04T02:12:35;24.90;85.70
17370;DHT22;8802;52.402;4.920;2022-08-04T02:15:13;24.90;85.60
17370;DHT22;8802;52.402;4.920;2022-08-04T02:17:48;24.90;85.70
17370;DHT22;8802;52.402;4.920;2022-08-04T02:20:22;24.90;86.60
17370;DHT22;8802;52.402;4.920;2022-08-04T02:22:57;24.90;86.00
17370;DHT22;8802;52.402;4.920;2022-08-04T02:25:25;24.80;86.00
17370;DHT22;8802;52.402;4.920;2022-08-04T02:28:10;24.90;86.10
17370;DHT22;8802;52.402;4.920;2022-08-04T02:30:44;24.80;86.30
17370;DHT22;8802;52.402;4.920;2022-08-04T02:33:14;24.80;86.40
17370;DHT22;8802;52.402;4.920;2022-08-04T02:35:45;24.80;86.30
17370;DHT22;8802;52.402;4.920;2022-08-04T02:38:20;24.80;86.40
17370;DHT22;8802;52.402;4.920;2022-08-04T02:40:50;24.80;86.60
17370;DHT22;8802;52.402;4.920;2022-08-04T02:43:19;24.80;86.60
17370;DHT22;8802;52.402;4.920;2022-08-04T02:45:50;24.80;86.80
17370;DHT22;8802;52.402;4.920;2022-08-04T02:48:23;24.80;87.00
17370;DHT22;8802;52.402;4.920;2022-08-04T02:50:50;24.80;87.10
17370;DHT22;8802;52.402;4.920;2022-08-04T02:53:21;24.80;87.10
17370;DHT22;8802;52.402;4.920;2022-08-04T02:55:48;24.80;88.10
17370;DHT22;8802;52.402;4.920;2022-08-04T02:58:19;24.80;87.10
17370;DHT22;8802;52.402;4.920;2022-08-04T03:00:48;24.80;87.10
17370;DHT22;8802;52.402;4.920;2022-08-04T03:03:23;24.80;87.30
17370;DHT22;8802;52.402;4.920;2022-08-04T03:06:27;24.80;87.10
17370;DHT22;8802;52.402;4.920;2022-08-04T03:09:24;24.70;87.30
17370;DHT22;8802;52.402;4.920;2022-08-04T03:12:27;24.70;87.50
17370;DHT22;8802;52.402;4.920;2022-08-04T03:18:36;24.70;87.50
17370;DHT22;8802;52.402;4.920;2022-08-04T03:21:37;24.70;87.60
17370;DHT22;8802;52.402;4.920;2022-08-04T03:24:52;24.70;87.60
17370;DHT22;8802;52.402;4.920;2022-08-04T03:27:57;24.70;87.50
17370;DHT22;8802;52.402;4.920;2022-08-04T03:30:37;24.70;87.30
17370;DHT22;8802;52.402;4.920;2022-08-04T03:33:38;24.70;87.60
17370;DHT22;8802;52.402;4.920;2022-08-04T03:36:37;24.60;87.80
17370;DHT22;8802;52.402;4.920;2022-08-04T03:42:33;24.60;87.60
17370;DHT22;8802;52.402;4.920;2022-08-04T03:45:32;24.60;87.90
17370;DHT22;8802;52.402;4.920;2022-08-04T03:57:55;24.60;87.20
17370;DHT22;8802;52.402;4.920;2022-08-04T04:00:30;24.60;87.20
17370;DHT22;8802;52.402;4.920;2022-08-04T04:03:28;24.60;87.10
17370;DHT22;8802;52.402;4.920;2022-08-04T04:09:26;24.60;86.90
17370;DHT22;8802;52.402;4.920;2022-08-04T04:18:15;24.60;86.90
17370;DHT22;8802;52.402;4.920;2022-08-04T04:20:57;24.60;86.90
17370;DHT22;8802;52.402;4.920;2022-08-04T04:23:58;24.60;86.80
17370;DHT22;8802;52.402;4.920;2022-08-04T04:26:37;24.60;86.80
17370;DHT22;8802;52.402;4.920;2022-08-04T04:29:28;24.60;87.00
17370;DHT22;8802;52.402;4.920;2022-08-04T04:32:09;24.50;86.90
17370;DHT22;8802;52.402;4.920;2022-08-04T04:34:47;24.50;86.90
17370;DHT22;8802;52.402;4.920;2022-08-04T04:37:34;24.60;86.90
17370;DHT22;8802;52.402;4.920;2022-08-04T04:40:21;24.50;87.00
17370;DHT22;8802;52.402;4.920;2022-08-04T04:43:10;24.50;87.00
17370;DHT22;8802;52.402;4.920;2022-08-04T04:45:45;24.50;87.00
17370;DHT22;8802;52.402;4.920;2022-08-04T04:48:26;24.50;87.10
17370;DHT22;8802;52.402;4.920;2022-08-04T04:51:07;24.50;87.10
17370;DHT22;8802;52.402;4.920;2022-08-04T04:53:44;24.50;87.30
17370;DHT22;8802;52.402;4.920;2022-08-04T04:56:18;24.50;87.20
17370;DHT22;8802;52.402;4.920;2022-08-04T04:58:50;24.50;87.30
17370;DHT22;8802;52.402;4.920;2022-08-04T05:01:50;24.50;87.40
17370;DHT22;8802;52.402;4.920;2022-08-04T05:04:47;24.50;87.50
17370;DHT22;8802;52.402;4.920;2022-08-04T05:07:53;24.50;87.60
17370;DHT22;8802;52.402;4.920;2022-08-04T05:10:39;24.50;87.80
17370;DHT22;8802;52.402;4.920;2022-08-04T05:13:27;24.60;87.70
17370;DHT22;8802;52.402;4.920;2022-08-04T05:16:07;24.60;88.10
17370;DHT22;8802;52.402;4.920;2022-08-04T05:18:39;24.60;87.80
17370;DHT22;8802;52.402;4.920;2022-08-04T05:21:18;24.50;88.10
17370;DHT22;8802;52.402;4.920;2022-08-04T05:23:49;24.60;88.50
17370;DHT22;8802;52.402;4.920;2022-08-04T05:26:23;24.60;88.50
17370;DHT22;8802;52.402;4.920;2022-08-04T05:28:55;24.60;88.60
17370;DHT22;8802;52.402;4.920;2022-08-04T05:31:26;24.60;88.60
17370;DHT22;8802;52.402;4.920;2022-08-04T05:33:57;24.60;88.70
17370;DHT22;8802;52.402;4.920;2022-08-04T05:36:32;24.60;88.80
17370;DHT22;8802;52.402;4.920;2022-08-04T05:39:00;24.60;90.00
17370;DHT22;8802;52.402;4.920;2022-08-04T05:41:28;24.60;89.20
17370;DHT22;8802;52.402;4.920;2022-08-04T05:43:57;24.70;89.20
17370;DHT22;8802;52.402;4.920;2022-08-04T05:46:25;24.70;89.30
17370;DHT22;8802;52.402;4.920;2022-08-04T05:48:53;24.70;89.50
17370;DHT22;8802;52.402;4.920;2022-08-04T05:51:21;24.70;89.50
17370;DHT22;8802;52.402;4.920;2022-08-04T05:53:49;24.70;89.60
17370;DHT22;8802;52.402;4.920;2022-08-04T05:56:17;24.70;89.80
17370;DHT22;8802;52.402;4.920;2022-08-04T05:58:45;24.80;89.90
17370;DHT22;8802;52.402;4.920;2022-08-04T06:01:14;24.70;89.90
17370;DHT22;8802;52.402;4.920;2022-08-04T06:03:43;24.70;90.00
17370;DHT22;8802;52.402;4.920;2022-08-04T06:06:13;24.80;90.00
17370;DHT22;8802;52.402;4.920;2022-08-04T06:08:41;24.80;90.10
17370;DHT22;8802;52.402;4.920;2022-08-04T06:11:08;24.80;90.20
17370;DHT22;8802;52.402;4.920;2022-08-04T06:13:41;24.80;90.20
17370;DHT22;8802;52.402;4.920;2022-08-04T06:16:10;24.80;90.10
17370;DHT22;8802;52.402;4.920;2022-08-04T06:18:43;24.80;90.20
17370;DHT22;8802;52.402;4.920;2022-08-04T06:21:12;24.80;90.30
17370;DHT22;8802;52.402;4.920;2022-08-04T06:23:41;24.80;90.20
17370;DHT22;8802;52.402;4.920;2022-08-04T06:26:10;24.80;90.30
17370;DHT22;8802;52.402;4.920;2022-08-04T06:28:44;24.80;90.30
17370;DHT22;8802;52.402;4.920;2022-08-04T06:31:13;24.90;90.30
17370;DHT22;8802;52.402;4.920;2022-08-04T06:33:48;24.90;90.30
17370;DHT22;8802;52.402;4.920;2022-08-04T06:36:17;24.90;90.30
17370;DHT22;8802;52.402;4.920;2022-08-04T06:38:45;24.90;90.30
17370;DHT22;8802;52.402;4.920;2022-08-04T06:41:12;25.00;90.20
17370;DHT22;8802;52.402;4.920;2022-08-04T06:43:39;25.00;90.20
17370;DHT22;8802;52.402;4.920;2022-08-04T06:46:07;25.00;90.20
17370;DHT22;8802;52.402;4.920;2022-08-04T06:48:35;25.00;90.30
17370;DHT22;8802;52.402;4.920;2022-08-04T06:51:05;25.00;90.10
17370;DHT22;8802;52.402;4.920;2022-08-04T06:53:32;25.00;90.10
17370;DHT22;8802;52.402;4.920;2022-08-04T06:56:00;25.00;90.10
17370;DHT22;8802;52.402;4.920;2022-08-04T06:58:30;25.10;90.00
17370;DHT22;8802;52.402;4.920;2022-08-04T07:00:58;25.10;89.70
17370;DHT22;8802;52.402;4.920;2022-08-04T07:03:26;25.10;89.40
17370;DHT22;8802;52.402;4.920;2022-08-04T07:05:54;25.10;89.20
17370;DHT22;8802;52.402;4.920;2022-08-04T07:08:22;25.10;88.90
17370;DHT22;8802;52.402;4.920;2022-08-04T07:10:49;25.10;88.70
17370;DHT22;8802;52.402;4.920;2022-08-04T07:13:19;25.20;88.60
17370;DHT22;8802;52.402;4.920;2022-08-04T07:15:47;25.20;88.50
17370;DHT22;8802;52.402;4.920;2022-08-04T07:18:14;25.20;88.80
17370;DHT22;8802;52.402;4.920;2022-08-04T07:20:42;25.20;88.00
17370;DHT22;8802;52.402;4.920;2022-08-04T07:23:10;25.20;87.80
17370;DHT22;8802;52.402;4.920;2022-08-04T07:25:43;25.30;88.00
17370;DHT22;8802;52.402;4.920;2022-08-04T07:28:15;25.40;88.00
17370;DHT22;8802;52.402;4.920;2022-08-04T07:30:43;25.40;87.80
17370;DHT22;8802;52.402;4.920;2022-08-04T07:33:11;25.50;87.10
17370;DHT22;8802;52.402;4.920;2022-08-04T07:35:38;25.50;86.60
17370;DHT22;8802;52.402;4.920;2022-08-04T07:38:06;25.60;86.10
17370;DHT22;8802;52.402;4.920;2022-08-04T07:40:35;25.60;86.10
17370;DHT22;8802;52.402;4.920;2022-08-04T07:43:03;25.70;85.90
17370;DHT22;8802;52.402;4.920;2022-08-04T07:45:31;25.70;85.60
17370;DHT22;8802;52.402;4.920;2022-08-04T07:47:58;25.80;85.40
17370;DHT22;8802;52.402;4.920;2022-08-04T07:50:26;25.90;85.20
17370;DHT22;8802;52.402;4.920;2022-08-04T07:52:54;25.90;84.00
17370;DHT22;8802;52.402;4.920;2022-08-04T07:55:22;26.00;84.10
17370;DHT22;8802;52.402;4.920;2022-08-04T07:57:49;26.00;84.00
17370;DHT22;8802;52.402;4.920;2022-08-04T08:00:17;26.00;84.20
17370;DHT22;8802;52.402;4.920;2022-08-04T08:02:48;26.00;83.40
17370;DHT22;8802;52.402;4.920;2022-08-04T08:05:17;26.10;83.40
17370;DHT22;8802;52.402;4.920;2022-08-04T08:07:45;26.20;83.20
17370;DHT22;8802;52.402;4.920;2022-08-04T08:10:13;26.20;83.20
17370;DHT22;8802;52.402;4.920;2022-08-04T08:12:41;26.30;82.80
17370;DHT22;8802;52.402;4.920;2022-08-04T08:15:08;26.30;82.70
17370;DHT22;8802;52.402;4.920;2022-08-04T08:17:38;26.40;80.80
17370;DHT22;8802;52.402;4.920;2022-08-04T08:20:07;26.40;80.80
17370;DHT22;8802;52.402;4.920;2022-08-04T08:22:35;26.50;80.30
17370;DHT22;8802;52.402;4.920;2022-08-04T08:25:03;26.60;80.40
17370;DHT22;8802;52.402;4.920;2022-08-04T08:27:30;26.60;79.50
17370;DHT22;8802;52.402;4.920;2022-08-04T08:29:58;26.70;78.40
17370;DHT22;8802;52.402;4.920;2022-08-04T08:32:25;26.70;77.80
17370;DHT22;8802;52.402;4.920;2022-08-04T08:34:54;26.70;77.60
17370;DHT22;8802;52.402;4.920;2022-08-04T08:37:27;26.80;77.30
17370;DHT22;8802;52.402;4.920;2022-08-04T08:40:01;26.90;76.00
17370;DHT22;8802;52.402;4.920;2022-08-04T08:42:59;26.90;75.90
17370;DHT22;8802;52.402;4.920;2022-08-04T08:45:53;27.00;75.60
17370;DHT22;8802;52.402;4.920;2022-08-04T08:49:04;27.00;75.40
17370;DHT22;8802;52.402;4.920;2022-08-04T08:52:06;27.10;75.50
17370;DHT22;8802;52.402;4.920;2022-08-04T08:54:53;27.20;75.20
17370;DHT22;8802;52.402;4.920;2022-08-04T08:57:39;27.20;75.20
17370;DHT22;8802;52.402;4.920;2022-08-04T09:00:12;27.30;75.20
17370;DHT22;8802;52.402;4.920;2022-08-04T09:06:08;27.30;73.40
17370;DHT22;8802;52.402;4.920;2022-08-04T09:08:52;27.40;74.10
17370;DHT22;8802;52.402;4.920;2022-08-04T09:11:23;27.40;73.60
17370;DHT22;8802;52.402;4.920;2022-08-04T09:13:55;27.50;73.20
17370;DHT22;8802;52.402;4.920;2022-08-04T09:16:27;27.60;72.50
17370;DHT22;8802;52.402;4.920;2022-08-04T09:19:03;27.60;71.70
17370;DHT22;8802;52.402;4.920;2022-08-04T09:21:36;27.60;71.40
17370;DHT22;8802;52.402;4.920;2022-08-04T09:24:12;27.70;70.70
17370;DHT22;8802;52.402;4.920;2022-08-04T09:26:45;27.70;71.60
17370;DHT22;8802;52.402;4.920;2022-08-04T09:29:18;27.80;70.40
17370;DHT22;8802;52.402;4.920;2022-08-04T09:31:52;27.80;70.90
17370;DHT22;8802;52.402;4.920;2022-08-04T09:37:16;27.90;69.80
17370;DHT22;8802;52.402;4.920;2022-08-04T09:39:56;28.00;70.40
17370;DHT22;8802;52.402;4.920;2022-08-04T09:42:32;28.00;70.10
17370;DHT22;8802;52.402;4.920;2022-08-04T09:45:08;28.10;69.70
17370;DHT22;8802;52.402;4.920;2022-08-04T09:47:42;28.10;69.90
17370;DHT22;8802;52.402;4.920;2022-08-04T09:50:18;28.20;69.70
17370;DHT22;8802;52.402;4.920;2022-08-04T09:52:55;28.20;68.50
17370;DHT22;8802;52.402;4.920;2022-08-04T09:55:37;28.30;68.20
17370;DHT22;8802;52.402;4.920;2022-08-04T09:58:14;28.40;68.50
17370;DHT22;8802;52.402;4.920;2022-08-04T10:00:50;28.40;67.80
17370;DHT22;8802;52.402;4.920;2022-08-04T10:03:18;28.40;68.50
17370;DHT22;8802;52.402;4.920;2022-08-04T10:05:59;28.50;67.80
17370;DHT22;8802;52.402;4.920;2022-08-04T10:08:40;28.50;66.70
17370;DHT22;8802;52.402;4.920;2022-08-04T10:11:13;28.50;66.40
17370;DHT22;8802;52.402;4.920;2022-08-04T10:13:48;28.60;66.90
17370;DHT22;8802;52.402;4.920;2022-08-04T10:16:34;28.60;66.60
17370;DHT22;8802;52.402;4.920;2022-08-04T10:19:13;28.60;66.10
17370;DHT22;8802;52.402;4.920;2022-08-04T10:21:51;28.60;65.70
17370;DHT22;8802;52.402;4.920;2022-08-04T10:24:29;28.70;66.30
17370;DHT22;8802;52.402;4.920;2022-08-04T10:27:03;28.70;65.50
17370;DHT22;8802;52.402;4.920;2022-08-04T10:29:43;28.70;66.60
17370;DHT22;8802;52.402;4.920;2022-08-04T10:32:15;28.70;65.10
17370;DHT22;8802;52.402;4.920;2022-08-04T10:34:53;28.70;65.10
17370;DHT22;8802;52.402;4.920;2022-08-04T10:37:28;28.70;63.80
17370;DHT22;8802;52.402;4.920;2022-08-04T10:40:03;28.70;63.90
17370;DHT22;8802;52.402;4.920;2022-08-04T10:42:57;28.70;63.60
17370;DHT22;8802;52.402;4.920;2022-08-04T10:45:29;28.70;64.50
17370;DHT22;8802;52.402;4.920;2022-08-04T10:48:06;28.70;64.30
17370;DHT22;8802;52.402;4.920;2022-08-04T10:50:41;28.70;63.90
17370;DHT22;8802;52.402;4.920;2022-08-04T10:53:13;28.70;63.90
17370;DHT22;8802;52.402;4.920;2022-08-04T10:55:49;28.70;63.40
17370;DHT22;8802;52.402;4.920;2022-08-04T10:58:22;28.80;62.20
17370;DHT22;8802;52.402;4.920;2022-08-04T11:00:55;28.80;63.00
17370;DHT22;8802;52.402;4.920;2022-08-04T11:03:33;28.80;63.00
17370;DHT22;8802;52.402;4.920;2022-08-04T11:06:01;28.90;63.10
17370;DHT22;8802;52.402;4.920;2022-08-04T11:08:32;28.90;63.30
17370;DHT22;8802;52.402;4.920;2022-08-04T11:11:04;28.90;62.60
17370;DHT22;8802;52.402;4.920;2022-08-04T11:13:39;29.00;63.10
17370;DHT22;8802;52.402;4.920;2022-08-04T11:16:15;29.10;61.20
17370;DHT22;8802;52.402;4.920;2022-08-04T11:18:48;29.10;62.50
17370;DHT22;8802;52.402;4.920;2022-08-04T11:21:20;29.20;61.50
17370;DHT22;8802;52.402;4.920;2022-08-04T11:23:58;29.30;61.50
17370;DHT22;8802;52.402;4.920;2022-08-04T11:26:36;29.40;61.70
17370;DHT22;8802;52.402;4.920;2022-08-04T11:29:17;29.50;62.00
17370;DHT22;8802;52.402;4.920;2022-08-04T11:31:48;29.60;61.90
17370;DHT22;8802;52.402;4.920;2022-08-04T11:34:19;29.80;60.90
17370;DHT22;8802;52.402;4.920;2022-08-04T11:36:51;29.90;60.60
17370;DHT22;8802;52.402;4.920;2022-08-04T11:39:25;30.00;60.30
17370;DHT22;8802;52.402;4.920;2022-08-04T11:41:57;30.10;59.70
17370;DHT22;8802;52.402;4.920;2022-08-04T11:44:31;30.20;59.60
17370;DHT22;8802;52.402;4.920;2022-08-04T11:47:01;30.30;59.70
17370;DHT22;8802;52.402;4.920;2022-08-04T11:49:33;30.40;60.00
17370;DHT22;8802;52.402;4.920;2022-08-04T11:52:02;30.50;59.90
17370;DHT22;8802;52.402;4.920;2022-08-04T11:54:32;30.70;59.50
17370;DHT22;8802;52.402;4.920;2022-08-04T11:57:00;30.80;58.40
17370;DHT22;8802;52.402;4.920;2022-08-04T11:59:29;30.80;58.60
17370;DHT22;8802;52.402;4.920;2022-08-04T12:02:10;30.90;58.30
17370;DHT22;8802;52.402;4.920;2022-08-04T12:04:54;31.00;58.00
17370;DHT22;8802;52.402;4.920;2022-08-04T12:07:33;31.10;57.90
17370;DHT22;8802;52.402;4.920;2022-08-04T12:10:14;31.20;56.70
17370;DHT22;8802;52.402;4.920;2022-08-04T12:12:52;31.30;56.00
17370;DHT22;8802;52.402;4.920;2022-08-04T12:15:26;31.30;57.10
17370;DHT22;8802;52.402;4.920;2022-08-04T12:18:03;31.30;56.10
17370;DHT22;8802;52.402;4.920;2022-08-04T12:20:39;31.30;55.80
17370;DHT22;8802;52.402;4.920;2022-08-04T12:23:16;31.30;57.00
17370;DHT22;8802;52.402;4.920;2022-08-04T12:25:47;31.40;56.50
17370;DHT22;8802;52.402;4.920;2022-08-04T12:28:23;31.40;56.10
17370;DHT22;8802;52.402;4.920;2022-08-04T12:30:59;31.40;55.60
17370;DHT22;8802;52.402;4.920;2022-08-04T12:33:33;31.40;55.40
17370;DHT22;8802;52.402;4.920;2022-08-04T12:36:08;31.50;55.10
17370;DHT22;8802;52.402;4.920;2022-08-04T12:38:46;31.50;55.10
17370;DHT22;8802;52.402;4.920;2022-08-04T12:41:15;31.50;55.40
17370;DHT22;8802;52.402;4.920;2022-08-04T12:43:44;31.60;55.30
17370;DHT22;8802;52.402;4.920;2022-08-04T12:46:19;31.60;55.50
17370;DHT22;8802;52.402;4.920;2022-08-04T12:48:46;31.60;54.90
17370;DHT22;8802;52.402;4.920;2022-08-04T12:51:14;31.70;55.00
17370;DHT22;8802;52.402;4.920;2022-08-04T12:53:43;31.70;54.70
17370;DHT22;8802;52.402;4.920;2022-08-04T12:56:12;31.70;53.90
17370;DHT22;8802;52.402;4.920;2022-08-04T12:58:41;31.70;54.20
17370;DHT22;8802;52.402;4.920;2022-08-04T13:01:11;31.70;54.40
17370;DHT22;8802;52.402;4.920;2022-08-04T13:03:41;31.70;54.30
17370;DHT22;8802;52.402;4.920;2022-08-04T13:06:12;31.70;54.40
17370;DHT22;8802;52.402;4.920;2022-08-04T13:08:42;31.70;54.10
17370;DHT22;8802;52.402;4.920;2022-08-04T13:11:11;31.70;54.60
17370;DHT22;8802;52.402;4.920;2022-08-04T13:13:39;31.70;54.50
17370;DHT22;8802;52.402;4.920;2022-08-04T13:16:08;31.70;54.20
17370;DHT22;8802;52.402;4.920;2022-08-04T13:18:38;31.70;54.30
17370;DHT22;8802;52.402;4.920;2022-08-04T13:21:12;31.60;53.50
17370;DHT22;8802;52.402;4.920;2022-08-04T13:23:40;31.60;53.00
17370;DHT22;8802;52.402;4.920;2022-08-04T13:26:11;31.60;53.60
17370;DHT22;8802;52.402;4.920;2022-08-04T13:28:40;31.60;53.80
17370;DHT22;8802;52.402;4.920;2022-08-04T13:31:12;31.60;53.10
17370;DHT22;8802;52.402;4.920;2022-08-04T13:33:42;31.50;53.80
17370;DHT22;8802;52.402;4.920;2022-08-04T13:36:11;31.50;53.70
17370;DHT22;8802;52.402;4.920;2022-08-04T13:38:45;31.40;53.90
17370;DHT22;8802;52.402;4.920;2022-08-04T13:41:16;31.40;53.00
17370;DHT22;8802;52.402;4.920;2022-08-04T13:43:45;31.30;53.80
17370;DHT22;8802;52.402;4.920;2022-08-04T13:46:16;31.30;52.80
17370;DHT22;8802;52.402;4.920;2022-08-04T13:48:44;31.20;53.00
17370;DHT22;8802;52.402;4.920;2022-08-04T13:51:17;31.10;53.10
17370;DHT22;8802;52.402;4.920;2022-08-04T13:53:44;31.10;53.10
17370;DHT22;8802;52.402;4.920;2022-08-04T13:56:13;31.00;53.50
17370;DHT22;8802;52.402;4.920;2022-08-04T13:58:44;31.00;53.90
17370;DHT22;8802;52.402;4.920;2022-08-04T14:01:15;30.90;53.50
17370;DHT22;8802;52.402;4.920;2022-08-04T14:03:51;30.90;54.00
17370;DHT22;8802;52.402;4.920;2022-08-04T14:06:25;30.80;53.80
17370;DHT22;8802;52.402;4.920;2022-08-04T14:08:56;30.80;53.80
17370;DHT22;8802;52.402;4.920;2022-08-04T14:11:32;30.70;53.50
17370;DHT22;8802;52.402;4.920;2022-08-04T14:14:00;30.60;53.90
17370;DHT22;8802;52.402;4.920;2022-08-04T14:16:27;30.50;54.10
17370;DHT22;8802;52.402;4.920;2022-08-04T14:18:58;30.40;54.50
17370;DHT22;8802;52.402;4.920;2022-08-04T14:21:27;30.40;54.50
17370;DHT22;8802;52.402;4.920;2022-08-04T14:24:00;30.30;54.70
17370;DHT22;8802;52.402;4.920;2022-08-04T14:26:30;30.20;54.80
17370;DHT22;8802;52.402;4.920;2022-08-04T14:29:07;30.10;55.30
17370;DHT22;8802;52.402;4.920;2022-08-04T14:31:34;30.10;55.50
17370;DHT22;8802;52.402;4.920;2022-08-04T14:34:01;30.00;55.20
17370;DHT22;8802;52.402;4.920;2022-08-04T14:36:38;30.00;55.10
17370;DHT22;8802;52.402;4.920;2022-08-04T14:39:06;29.90;55.50
17370;DHT22;8802;52.402;4.920;2022-08-04T14:41:43;29.80;55.20
17370;DHT22;8802;52.402;4.920;2022-08-04T14:44:11;29.70;54.70
17370;DHT22;8802;52.402;4.920;2022-08-04T14:46:49;29.70;54.90
17370;DHT22;8802;52.402;4.920;2022-08-04T14:49:16;29.60;54.40
17370;DHT22;8802;52.402;4.920;2022-08-04T14:51:51;29.60;55.00
17370;DHT22;8802;52.402;4.920;2022-08-04T14:54:27;29.50;55.20
17370;DHT22;8802;52.402;4.920;2022-08-04T14:56:55;29.50;55.20
17370;DHT22;8802;52.402;4.920;2022-08-04T14:59:23;29.50;55.70
17370;DHT22;8802;52.402;4.920;2022-08-04T15:01:51;29.40;55.30
17370;DHT22;8802;52.402;4.920;2022-08-04T15:04:18;29.40;55.50
17370;DHT22;8802;52.402;4.920;2022-08-04T15:06:48;29.30;55.90
17370;DHT22;8802;52.402;4.920;2022-08-04T15:09:15;29.30;55.50
17370;DHT22;8802;52.402;4.920;2022-08-04T15:11:43;29.20;55.60
17370;DHT22;8802;52.402;4.920;2022-08-04T15:14:10;29.10;55.70
17370;DHT22;8802;52.402;4.920;2022-08-04T15:16:37;29.10;55.60
17370;DHT22;8802;52.402;4.920;2022-08-04T15:19:06;29.10;55.90
17370;DHT22;8802;52.402;4.920;2022-08-04T15:21:35;29.00;55.90
17370;DHT22;8802;52.402;4.920;2022-08-04T15:24:04;29.00;55.70
17370;DHT22;8802;52.402;4.920;2022-08-04T15:26:34;29.00;55.60
17370;DHT22;8802;52.402;4.920;2022-08-04T15:29:06;29.00;56.00
17370;DHT22;8802;52.402;4.920;2022-08-04T15:31:37;29.00;56.60
17370;DHT22;8802;52.402;4.920;2022-08-04T15:34:05;28.90;56.10
17370;DHT22;8802;52.402;4.920;2022-08-04T15:36:37;28.90;55.40
17370;DHT22;8802;52.402;4.920;2022-08-04T15:39:18;28.90;55.60
17370;DHT22;8802;52.402;4.920;2022-08-04T15:41:55;28.80;55.80
17370;DHT22;8802;52.402;4.920;2022-08-04T15:47:26;28.80;56.20
17370;DHT22;8802;52.402;4.920;2022-08-04T15:50:11;28.80;56.20
17370;DHT22;8802;52.402;4.920;2022-08-04T15:53:01;28.70;56.20
17370;DHT22;8802;52.402;4.920;2022-08-04T15:55:36;28.70;55.80
17370;DHT22;8802;52.402;4.920;2022-08-04T15:58:05;28.70;56.00
17370;DHT22;8802;52.402;4.920;2022-08-04T16:03:48;28.70;55.80
17370;DHT22;8802;52.402;4.920;2022-08-04T16:06:40;28.60;55.40
17370;DHT22;8802;52.402;4.920;2022-08-04T16:09:08;28.60;55.80
17370;DHT22;8802;52.402;4.920;2022-08-04T16:11:47;28.60;56.10
17370;DHT22;8802;52.402;4.920;2022-08-04T16:14:13;28.50;56.10
17370;DHT22;8802;52.402;4.920;2022-08-04T16:16:47;28.50;56.40
17370;DHT22;8802;52.402;4.920;2022-08-04T16:19:27;28.40;56.30
17370;DHT22;8802;52.402;4.920;2022-08-04T16:21:59;28.40;56.30
17370;DHT22;8802;52.402;4.920;2022-08-04T16:24:28;28.40;56.60
17370;DHT22;8802;52.402;4.920;2022-08-04T16:26:57;28.40;56.70
17370;DHT22;8802;52.402;4.920;2022-08-04T16:29:32;28.30;56.70
17370;DHT22;8802;52.402;4.920;2022-08-04T16:32:20;28.30;56.80
17370;DHT22;8802;52.402;4.920;2022-08-04T16:34:57;28.30;57.10
17370;DHT22;8802;52.402;4.920;2022-08-04T16:37:31;28.20;57.30
17370;DHT22;8802;52.402;4.920;2022-08-04T16:40:30;28.20;57.20
17370;DHT22;8802;52.402;4.920;2022-08-04T16:43:01;28.10;57.30
17370;DHT22;8802;52.402;4.920;2022-08-04T16:45:49;28.10;57.60
17370;DHT22;8802;52.402;4.920;2022-08-04T16:48:18;28.10;57.60
17370;DHT22;8802;52.402;4.920;2022-08-04T16:50:51;28.00;57.30
17370;DHT22;8802;52.402;4.920;2022-08-04T16:53:20;28.00;57.40
17370;DHT22;8802;52.402;4.920;2022-08-04T16:55:49;27.90;57.60
17370;DHT22;8802;52.402;4.920;2022-08-04T16:58:28;27.90;57.90
17370;DHT22;8802;52.402;4.920;2022-08-04T17:00:56;27.80;58.20
17370;DHT22;8802;52.402;4.920;2022-08-04T17:03:24;27.80;58.40
17370;DHT22;8802;52.402;4.920;2022-08-04T17:06:05;27.80;58.30
17370;DHT22;8802;52.402;4.920;2022-08-04T17:08:32;27.70;58.60
17370;DHT22;8802;52.402;4.920;2022-08-04T17:11:00;27.70;58.90
17370;DHT22;8802;52.402;4.920;2022-08-04T17:13:30;27.60;58.80